TimeMST,TemperatureF,Dew PointF,Humidity,Sea Level PressureIn,VisibilityMPH,Wind Direction,Wind SpeedMPH,Gust SpeedMPH,PrecipitationIn,Events,Conditions,WindDirDegrees,DateUTC
12:15 AM,12.2,3.2,67,30.37,-9999.0,Calm,Calm,-,N/A,,Clear,0,2012-12-04 07:15:00
12:35 AM,12.2,3.2,67,30.37,-9999.0,Calm,Calm,-,N/A,,Clear,0,2012-12-04 07:35:00
12:55 AM,12.2,3.2,67,30.38,-9999.0,Calm,Calm,-,N/A,,Clear,0,2012-12-04 07:55:00
1:15 AM,12.2,3.2,67,30.37,-9999.0,Calm,Calm,-,N/A,,Clear,0,2012-12-04 08:15:00
1:55 AM,10.4,1.4,67,30.38,-9999.0,Calm,Calm,-,N/A,,Clear,0,2012-12-04 08:55:00
2:15 AM,10.4,1.4,67,30.39,-9999.0,Calm,Calm,-,N/A,,Clear,0,2012-12-04 09:15:00
2:35 AM,10.4,3.2,73,30.40,-9999.0,Calm,Calm,-,N/A,,Clear,0,2012-12-04 09:35:00
2:55 AM,10.4,3.2,73,30.41,-9999.0,Calm,Calm,-,N/A,,Clear,0,2012-12-04 09:55:00
3:15 AM,10.4,3.2,73,30.41,-9999.0,Calm,Calm,-,N/A,,Clear,0,2012-12-04 10:15:00
3:35 AM,10.4,1.4,67,30.40,-9999.0,Calm,Calm,-,N/A,,Clear,0,2012-12-04 10:35:00
3:55 AM,10.4,1.4,67,30.41,-9999.0,Calm,Calm,-,N/A,,Clear,0,2012-12-04 10:55:00
4:15 AM,10.4,1.4,67,30.42,-9999.0,Calm,Calm,-,N/A,,Clear,0,2012-12-04 11:15:00
4:35 AM,10.4,3.2,73,30.42,-9999.0,Calm,Calm,-,N/A,,Clear,0,2012-12-04 11:35:00
4:55 AM,10.4,3.2,73,30.42,-9999.0,Calm,Calm,-,N/A,,Clear,0,2012-12-04 11:55:00
5:15 AM,10.4,5.0,79,30.42,-9999.0,Calm,Calm,-,N/A,,Clear,0,2012-12-04 12:15:00
5:34 AM,8.6,1.4,73,30.43,-9999.0,Calm,Calm,-,N/A,,Clear,0,2012-12-04 12:34:00
5:55 AM,8.6,-0.4,67,30.43,-9999.0,Calm,Calm,-,N/A,,Clear,0,2012-12-04 12:55:00
6:15 AM,10.4,3.2,73,30.43,-9999.0,Calm,Calm,-,N/A,,Clear,0,2012-12-04 13:15:00
6:35 AM,8.6,-0.4,67,30.44,-9999.0,Calm,Calm,-,N/A,,Clear,0,2012-12-04 13:35:00
6:55 AM,6.8,-0.4,72,30.46,-9999.0,Calm,Calm,-,N/A,,Clear,0,2012-12-04 13:55:00
7:15 AM,6.8,-0.4,72,30.47,-9999.0,Calm,Calm,-,N/A,,Clear,0,2012-12-04 14:15:00
7:35 AM,8.6,1.4,73,30.48,-9999.0,Calm,Calm,-,N/A,,Clear,0,2012-12-04 14:35:00
7:55 AM,10.4,3.2,73,30.48,-9999.0,Calm,Calm,-,N/A,,Clear,0,2012-12-04 14:55:00
8:15 AM,10.4,3.2,73,30.48,-9999.0,Calm,Calm,-,N/A,,Clear,0,2012-12-04 15:15:00
8:35 AM,12.2,3.2,67,30.49,-9999.0,Calm,Calm,-,N/A,,Clear,0,2012-12-04 15:35:00
8:55 AM,14.0,5.0,67,30.49,-9999.0,Calm,Calm,-,N/A,,Clear,0,2012-12-04 15:55:00
9:15 AM,15.8,5.0,62,30.49,-9999.0,Calm,Calm,-,N/A,,Clear,0,2012-12-04 16:15:00
9:35 AM,17.6,5.0,58,30.49,-9999.0,Calm,Calm,-,N/A,,Clear,0,2012-12-04 16:35:00
9:54 AM,19.4,5.0,54,30.49,-9999.0,Calm,Calm,-,N/A,,Clear,0,2012-12-04 16:54:00
10:14 AM,21.2,5.0,50,30.48,-9999.0,Calm,Calm,-,N/A,,Clear,0,2012-12-04 17:14:00
10:35 AM,23.0,5.0,46,30.47,-9999.0,Calm,Calm,-,N/A,,Clear,0,2012-12-04 17:35:00
11:15 AM,28.4,8.6,43,30.44,-9999.0,Calm,Calm,-,N/A,,Clear,0,2012-12-04 18:15:00
11:34 AM,30.2,8.6,40,30.43,-9999.0,Calm,Calm,-,N/A,,Clear,0,2012-12-04 18:34:00
11:55 AM,32.0,6.8,35,30.43,-9999.0,Calm,Calm,-,N/A,,Clear,0,2012-12-04 18:55:00
12:15 PM,32.0,5.0,32,30.42,-9999.0,Calm,Calm,-,N/A,,Clear,0,2012-12-04 19:15:00
12:35 PM,33.8,6.8,32,30.41,-9999.0,Calm,Calm,-,N/A,,Scattered Clouds,0,2012-12-04 19:35:00
12:55 PM,33.8,6.8,32,30.40,-9999.0,Calm,Calm,-,N/A,,Mostly Cloudy,0,2012-12-04 19:55:00
1:15 PM,35.6,6.8,30,30.39,-9999.0,Calm,Calm,-,N/A,,Mostly Cloudy,0,2012-12-04 20:15:00
1:35 PM,35.6,6.8,30,30.39,-9999.0,Calm,Calm,-,N/A,,Mostly Cloudy,0,2012-12-04 20:35:00
1:55 PM,35.6,6.8,30,30.39,-9999.0,Calm,Calm,-,N/A,,Overcast,0,2012-12-04 20:55:00
2:15 PM,35.6,6.8,30,30.38,-9999.0,Calm,Calm,-,N/A,,Overcast,0,2012-12-04 21:15:00
2:35 PM,37.4,5.0,26,30.37,-9999.0,Calm,Calm,-,N/A,,Overcast,0,2012-12-04 21:35:00
2:55 PM,41.0,5.0,23,30.36,-9999.0,ESE,4.6,-,N/A,,Overcast,110,2012-12-04 21:55:00
3:15 PM,41.0,3.2,21,30.36,-9999.0,Calm,Calm,-,N/A,,Overcast,0,2012-12-04 22:15:00
3:35 PM,41.0,3.2,21,30.36,-9999.0,Calm,Calm,-,N/A,,Overcast,0,2012-12-04 22:35:00
3:55 PM,41.0,3.2,21,30.36,-9999.0,Calm,Calm,-,N/A,,Overcast,0,2012-12-04 22:55:00
4:15 PM,41.0,5.0,23,30.36,-9999.0,ESE,8.1,-,N/A,,Overcast,110,2012-12-04 23:15:00
4:35 PM,37.4,5.0,26,30.37,-9999.0,East,9.2,-,N/A,,Overcast,100,2012-12-04 23:35:00
4:55 PM,37.4,5.0,26,30.38,-9999.0,East,5.8,-,N/A,,Overcast,100,2012-12-04 23:55:00
5:15 PM,37.4,5.0,26,30.38,-9999.0,East,5.8,-,N/A,,Overcast,90,2012-12-05 00:15:00
5:35 PM,37.4,3.2,24,30.37,-9999.0,SE,5.8,-,N/A,,Mostly Cloudy,140,2012-12-05 00:35:00
5:54 PM,35.6,5.0,28,30.37,-9999.0,South,4.6,-,N/A,,Scattered Clouds,190,2012-12-05 00:54:00
6:14 PM,33.8,5.0,30,30.37,-9999.0,West,5.8,-,N/A,,Clear,260,2012-12-05 01:14:00
6:35 PM,33.8,6.8,32,30.36,-9999.0,West,5.8,-,N/A,,Clear,270,2012-12-05 01:35:00
6:55 PM,32.0,6.8,35,30.37,-9999.0,Calm,Calm,-,N/A,,Clear,0,2012-12-05 01:55:00
7:15 PM,32.0,5.0,32,30.37,-9999.0,North,4.6,-,N/A,,Clear,10,2012-12-05 02:15:00
7:35 PM,32.0,8.6,38,30.37,-9999.0,North,3.5,-,N/A,,Clear,350,2012-12-05 02:35:00
7:55 PM,35.6,8.6,33,30.37,-9999.0,WSW,12.7,16.1,N/A,,Clear,240,2012-12-05 02:55:00
8:15 PM,35.6,8.6,33,30.37,-9999.0,NNW,3.5,-,N/A,,Clear,330,2012-12-05 03:15:00
8:35 PM,32.0,10.4,41,30.36,-9999.0,Calm,Calm,-,N/A,,Clear,0,2012-12-05 03:35:00
8:55 PM,30.2,10.4,44,30.37,-9999.0,NNE,5.8,-,N/A,,Clear,30,2012-12-05 03:55:00
9:15 PM,30.2,10.4,44,30.38,-9999.0,SE,3.5,-,N/A,,Clear,130,2012-12-05 04:15:00
9:35 PM,30.2,10.4,44,30.39,-9999.0,East,6.9,-,N/A,,Clear,100,2012-12-05 04:35:00
9:55 PM,30.2,10.4,44,30.39,-9999.0,North,4.6,-,N/A,,Clear,10,2012-12-05 04:55:00
10:14 PM,30.2,10.4,44,30.38,-9999.0,East,4.6,-,N/A,,Clear,80,2012-12-05 05:14:00
10:35 PM,30.2,10.4,44,30.37,-9999.0,East,4.6,-,N/A,,Clear,80,2012-12-05 05:35:00
10:55 PM,30.2,12.2,47,30.37,-9999.0,East,5.8,-,N/A,,Clear,90,2012-12-05 05:55:00
11:15 PM,28.4,10.4,47,30.37,-9999.0,East,5.8,-,N/A,,Clear,90,2012-12-05 06:15:00
11:35 PM,30.2,12.2,47,30.37,-9999.0,East,8.1,-,N/A,,Clear,90,2012-12-05 06:35:00
11:55 PM,30.2,12.2,47,30.36,-9999.0,East,10.4,-,N/A,,Clear,100,2012-12-05 06:55:00